createdAt,value
2018-03-25T00:03:00.176Z,25.07
2018-03-25T00:06:02.638Z,25.20
2018-03-25T00:09:05.127Z,24.37
2018-03-25T00:12:07.678Z,26.07
2018-03-25T00:15:10.122Z,24.37
2018-03-25T00:18:12.611Z,26.67
2018-03-25T00:21:15.053Z,25.50
2018-03-25T00:24:17.532Z,25.97
2018-03-25T00:27:20.089Z,25.70
2018-03-25T00:30:22.564Z,25.97
2018-03-25T00:33:25.063Z,25.90
2018-03-25T00:36:27.633Z,26.57
2018-03-25T00:39:30.083Z,26.10
2018-03-25T00:42:32.704Z,27.33
2018-03-25T00:45:35.190Z,26.70
2018-03-25T00:48:37.713Z,25.87
2018-03-25T00:51:40.208Z,26.70
2018-03-25T00:54:42.709Z,26.27
2018-03-25T00:57:45.237Z,28.03
2018-03-25T01:00:47.723Z,28.00
2018-03-25T01:03:50.172Z,25.90
2018-03-25T01:06:52.644Z,26.70
2018-03-25T01:09:55.129Z,27.10
2018-03-25T01:12:57.601Z,26.80
2018-03-25T01:16:10.966Z,27.37
2018-03-25T01:19:13.424Z,26.47
2018-03-25T01:22:15.923Z,30.17
2018-03-25T01:25:18.398Z,29.60
2018-03-25T01:28:20.879Z,28.37
2018-03-25T01:31:23.416Z,28.33
2018-03-25T01:34:25.880Z,26.90
2018-03-25T01:37:28.353Z,29.13
2018-03-25T01:40:30.905Z,27.50
2018-03-25T01:43:33.470Z,28.13
2018-03-25T01:46:35.923Z,28.37
2018-03-25T01:49:38.394Z,27.33
2018-03-25T01:52:40.952Z,27.77
2018-03-25T01:55:43.414Z,28.10
2018-03-25T01:58:45.936Z,28.03
2018-03-25T02:01:48.413Z,30.90
2018-03-25T02:04:51.692Z,27.90
2018-03-25T02:07:54.144Z,28.70
2018-03-25T02:10:56.634Z,30.30
2018-03-25T02:13:59.131Z,29.37
2018-03-25T02:17:01.584Z,27.30
2018-03-25T02:20:04.139Z,28.30
2018-03-25T02:23:06.686Z,27.60
2018-03-25T02:26:09.240Z,27.70
2018-03-25T02:29:11.708Z,27.27
2018-03-25T02:32:14.194Z,29.53
2018-03-25T02:35:16.671Z,28.47
2018-03-25T02:38:19.289Z,25.57
2018-03-25T02:41:21.770Z,26.53
2018-03-25T02:44:24.216Z,26.40
2018-03-25T02:47:26.674Z,27.53
2018-03-25T02:50:29.131Z,27.87
2018-03-25T02:53:31.622Z,27.33
2018-03-25T02:56:34.076Z,28.07
2018-03-25T02:59:36.491Z,26.43
2018-03-25T03:02:39.077Z,27.37
2018-03-25T03:05:41.526Z,26.00
2018-03-25T03:08:44.096Z,26.50
2018-03-25T03:11:46.560Z,26.63
2018-03-25T03:14:49.125Z,26.30
2018-03-25T03:17:51.690Z,25.83
2018-03-25T03:20:54.186Z,27.77
2018-03-25T03:23:56.634Z,27.70
2018-03-25T03:26:59.082Z,27.87
2018-03-25T03:30:01.630Z,28.53
2018-03-25T03:33:04.102Z,27.67
2018-03-25T03:36:06.657Z,25.07
2018-03-25T03:39:09.154Z,27.63
2018-03-25T03:42:11.625Z,26.87
2018-03-25T03:45:14.186Z,27.93
2018-03-25T03:48:16.805Z,28.20
2018-03-25T03:51:19.265Z,29.13
2018-03-25T03:54:21.847Z,26.53
2018-03-25T03:57:24.386Z,28.03
2018-03-25T04:00:26.983Z,27.70
2018-03-25T04:03:29.432Z,26.27
2018-03-25T04:06:32.089Z,26.83
2018-03-25T04:09:34.612Z,26.93
2018-03-25T04:12:37.201Z,28.37
2018-03-25T04:15:39.768Z,28.67
2018-03-25T04:18:42.272Z,30.50
2018-03-25T04:21:44.765Z,28.30
2018-03-25T04:24:47.270Z,28.30
2018-03-25T04:27:49.728Z,28.60
2018-03-25T04:30:52.332Z,27.77
2018-03-25T04:33:54.786Z,28.37
2018-03-25T04:36:57.272Z,30.23
2018-03-25T04:39:59.753Z,30.10
2018-03-25T04:43:02.244Z,27.90
2018-03-25T04:46:04.726Z,26.10
2018-03-25T04:49:07.188Z,28.53
2018-03-25T04:52:09.655Z,29.60
2018-03-25T04:55:12.163Z,28.00
2018-03-25T04:58:14.726Z,27.20
2018-03-25T05:01:17.191Z,27.83
2018-03-25T05:04:19.746Z,29.77
2018-03-25T05:07:22.208Z,29.97
2018-03-25T05:10:24.771Z,28.37
2018-03-25T05:13:27.243Z,28.90
2018-03-25T05:16:29.705Z,27.40
2018-03-25T05:19:32.172Z,27.97
2018-03-25T05:22:34.719Z,27.17
2018-03-25T05:25:37.287Z,27.77
2018-03-25T05:28:39.842Z,29.57
2018-03-25T05:31:42.275Z,29.00
2018-03-25T05:34:44.786Z,30.00
2018-03-25T05:37:47.326Z,28.30
2018-03-25T05:40:49.931Z,27.93
2018-03-25T05:43:52.409Z,27.43
2018-03-25T05:46:54.871Z,27.50
2018-03-25T05:49:57.342Z,27.50
2018-03-25T05:52:59.842Z,28.23
2018-03-25T05:56:02.354Z,29.30
2018-03-25T05:59:04.837Z,25.90
2018-03-25T06:02:07.322Z,26.60
2018-03-25T06:05:09.881Z,25.70
2018-03-25T06:08:12.358Z,26.13
2018-03-25T06:11:14.918Z,25.20
2018-03-25T06:14:17.414Z,23.60
2018-03-25T06:17:19.908Z,23.63
2018-03-25T06:20:22.384Z,23.30
2018-03-25T06:23:25.601Z,22.70
2018-03-25T06:26:28.124Z,21.93
2018-03-25T06:29:30.719Z,23.43
2018-03-25T06:32:33.255Z,23.70
2018-03-25T06:35:35.813Z,23.57
2018-03-25T06:38:38.287Z,22.73
2018-03-25T06:41:40.841Z,24.30
2018-03-25T06:44:43.325Z,23.47
2018-03-25T06:47:45.856Z,24.77
2018-03-25T06:50:48.342Z,25.77
2018-03-25T06:53:50.884Z,25.17
2018-03-25T06:56:53.449Z,25.47
2018-03-25T06:59:55.989Z,27.03
2018-03-25T07:02:58.464Z,27.17
2018-03-25T07:06:01.039Z,27.40
2018-03-25T07:09:03.455Z,27.43
2018-03-25T07:12:05.929Z,26.63
2018-03-25T07:15:08.520Z,27.93
2018-03-25T07:18:11.047Z,28.77
2018-03-25T07:21:13.470Z,29.40
2018-03-25T07:24:16.089Z,27.10
2018-03-25T07:27:18.543Z,27.33
2018-03-25T07:30:21.129Z,28.83
2018-03-25T07:33:23.690Z,27.67
2018-03-25T07:36:26.196Z,29.60
2018-03-25T07:39:28.693Z,29.57
2018-03-25T07:42:31.152Z,28.87
2018-03-25T07:45:33.750Z,29.27
2018-03-25T07:48:36.222Z,27.97
2018-03-25T07:51:38.762Z,29.50
2018-03-25T07:54:41.224Z,28.53
2018-03-25T07:57:43.741Z,28.70
2018-03-25T08:00:46.349Z,28.87
2018-03-25T08:03:48.956Z,28.20
2018-03-25T08:06:51.398Z,27.40
2018-03-25T08:09:53.933Z,28.90
2018-03-25T08:12:56.494Z,28.37
2018-03-25T08:15:59.024Z,28.67
2018-03-25T08:19:01.546Z,29.40
2018-03-25T08:22:04.047Z,29.40
2018-03-25T08:25:06.655Z,28.87
2018-03-25T08:28:09.129Z,28.67
2018-03-25T08:31:11.522Z,27.27
2018-03-25T08:34:14.023Z,28.00
2018-03-25T08:37:16.541Z,28.70
2018-03-25T08:40:19.178Z,29.87
2018-03-25T08:43:21.693Z,29.13
2018-03-25T08:46:24.289Z,29.90
2018-03-25T08:49:26.765Z,30.00
2018-03-25T08:52:29.299Z,30.83
2018-03-25T08:55:31.825Z,30.57
2018-03-25T08:58:34.264Z,31.20
2018-03-25T09:01:36.773Z,29.60
2018-03-25T09:04:39.269Z,30.13
2018-03-25T09:07:41.768Z,30.60
2018-03-25T09:10:44.294Z,28.60
2018-03-25T09:13:46.760Z,30.70
2018-03-25T09:16:49.239Z,30.83
2018-03-25T09:19:51.720Z,29.77
2018-03-25T09:22:54.267Z,28.50
2018-03-25T09:25:56.683Z,31.40
2018-03-25T09:28:59.176Z,31.17
2018-03-25T09:32:01.676Z,30.50
2018-03-25T09:35:04.285Z,31.20
2018-03-25T09:38:06.819Z,31.90
2018-03-25T09:41:09.338Z,31.13
2018-03-25T09:44:11.806Z,30.17
2018-03-25T09:47:14.306Z,30.07
2018-03-25T09:50:16.944Z,30.50
2018-03-25T09:53:19.537Z,29.70
2018-03-25T09:56:22.089Z,29.70
2018-03-25T09:59:28.243Z,30.93
2018-03-25T10:02:31.620Z,30.00
2018-03-25T10:05:34.185Z,29.47
2018-03-25T10:08:36.678Z,30.50
2018-03-25T10:11:39.209Z,29.40
2018-03-25T10:14:41.762Z,28.07
2018-03-25T10:17:44.217Z,30.00
2018-03-25T10:20:46.794Z,28.37
2018-03-25T10:23:49.319Z,28.20
2018-03-25T10:26:51.824Z,27.73
2018-03-25T10:29:54.362Z,28.77
2018-03-25T10:32:56.882Z,26.60
2018-03-25T10:35:59.395Z,25.97
2018-03-25T10:39:17.172Z,26.47
2018-03-25T10:42:19.671Z,25.50
2018-03-25T10:45:22.240Z,27.33
2018-03-25T10:48:24.736Z,27.60
2018-03-25T10:51:29.411Z,24.83
2018-03-25T10:54:31.896Z,26.00
2018-03-25T10:57:34.402Z,27.63
2018-03-25T11:00:36.881Z,27.67
2018-03-25T11:03:39.411Z,25.00
2018-03-25T11:06:41.891Z,25.33
2018-03-25T11:09:44.396Z,23.83
2018-03-25T11:12:46.941Z,23.37
2018-03-25T11:15:49.481Z,23.80
2018-03-25T11:18:52.063Z,23.23
2018-03-25T11:21:54.691Z,22.23
2018-03-25T11:24:57.171Z,23.00
2018-03-25T11:27:59.697Z,23.10
2018-03-25T11:31:02.160Z,24.47
2018-03-25T11:34:04.705Z,22.50
2018-03-25T11:37:07.223Z,22.43
2018-03-25T11:40:09.848Z,22.10
2018-03-25T11:43:12.311Z,20.27
2018-03-25T11:46:14.833Z,21.33
2018-03-25T11:49:17.302Z,21.67
2018-03-25T11:52:19.837Z,19.77
2018-03-25T11:55:22.407Z,20.93
2018-03-25T11:58:24.870Z,21.70
2018-03-25T12:01:27.367Z,20.93
2018-03-25T12:04:29.982Z,21.50
2018-03-25T12:07:32.517Z,20.37
2018-03-25T12:10:35.021Z,20.10
2018-03-25T12:13:37.503Z,20.73
2018-03-25T12:16:40.027Z,21.80
2018-03-25T12:19:42.535Z,21.17
2018-03-25T12:22:45.016Z,21.30
2018-03-25T12:25:47.506Z,20.80
2018-03-25T12:28:50.192Z,20.87
2018-03-25T12:31:52.762Z,21.33
2018-03-25T12:34:55.322Z,19.73
2018-03-25T12:37:57.881Z,19.43
2018-03-25T12:41:00.447Z,19.47
2018-03-25T12:44:03.172Z,19.50
2018-03-25T12:47:05.774Z,20.67
2018-03-25T12:50:08.331Z,19.80
2018-03-25T12:53:10.817Z,19.80
2018-03-25T12:56:13.326Z,18.47
2018-03-25T12:59:15.877Z,20.73
2018-03-25T13:02:18.487Z,19.80
2018-03-25T13:05:21.005Z,19.87
2018-03-25T13:08:23.471Z,19.80
2018-03-25T13:11:25.963Z,20.40
2018-03-25T13:14:28.517Z,21.20
2018-03-25T13:17:31.001Z,21.60
2018-03-25T13:20:33.547Z,21.57
2018-03-25T13:23:36.042Z,20.90
2018-03-25T13:26:38.532Z,21.33
2018-03-25T13:29:41.104Z,22.27
2018-03-25T13:32:44.622Z,22.27
2018-03-25T13:35:47.186Z,22.23
2018-03-25T13:38:49.699Z,23.10
2018-03-25T13:41:52.175Z,23.30
2018-03-25T13:44:54.781Z,23.73
2018-03-25T13:47:57.279Z,23.37
2018-03-25T13:50:59.791Z,21.73
2018-03-25T13:54:02.317Z,22.20
2018-03-25T13:57:04.843Z,22.40
2018-03-25T14:00:07.383Z,22.33
2018-03-25T14:03:09.913Z,21.23
2018-03-25T14:06:12.453Z,22.03
2018-03-25T14:09:14.919Z,21.57
2018-03-25T14:12:17.429Z,21.23
2018-03-25T14:15:19.922Z,22.63
2018-03-25T14:18:22.500Z,22.67
2018-03-25T14:21:24.986Z,21.50
2018-03-25T14:24:27.560Z,22.50
2018-03-25T14:27:30.070Z,22.40
2018-03-25T14:30:32.602Z,21.63
2018-03-25T14:33:35.118Z,19.30
2018-03-25T14:36:37.640Z,21.80
2018-03-25T14:39:40.189Z,20.90
2018-03-25T14:42:42.770Z,22.17
2018-03-25T14:45:45.309Z,21.97
2018-03-25T14:48:47.829Z,22.07
2018-03-25T14:51:50.415Z,22.40
2018-03-25T14:54:52.955Z,22.13
2018-03-25T14:57:55.432Z,22.10
2018-03-25T15:00:57.962Z,21.90
2018-03-25T15:04:00.454Z,22.10
2018-03-25T15:07:03.053Z,22.37
2018-03-25T15:10:05.612Z,22.13
2018-03-25T15:13:08.275Z,23.23
2018-03-25T15:16:10.809Z,21.47
2018-03-25T15:19:13.293Z,21.97
2018-03-25T15:22:15.863Z,22.50
2018-03-25T15:25:18.443Z,21.43
2018-03-25T15:28:20.986Z,23.67
2018-03-25T15:31:23.625Z,22.50
2018-03-25T15:34:26.153Z,23.00
2018-03-25T15:37:29.670Z,23.70
2018-03-25T15:40:32.369Z,24.10
2018-03-25T15:43:34.949Z,23.47
2018-03-25T15:46:37.494Z,23.10
2018-03-25T15:49:40.185Z,22.13
2018-03-25T15:52:42.856Z,21.13
2018-03-25T15:55:45.554Z,20.63
2018-03-25T15:58:48.209Z,22.40
2018-03-25T16:01:50.715Z,22.03
2018-03-25T16:04:53.261Z,21.67
2018-03-25T16:07:55.904Z,22.60
2018-03-25T16:10:58.400Z,22.10
2018-03-25T16:14:01.036Z,22.20
2018-03-25T16:17:03.664Z,21.33
2018-03-25T16:20:06.243Z,24.07
2018-03-25T16:23:08.969Z,22.13
2018-03-25T16:26:11.550Z,21.30
2018-03-25T16:29:14.186Z,22.50
2018-03-25T16:32:16.759Z,23.30
2018-03-25T16:35:19.279Z,23.23
2018-03-25T16:38:21.885Z,20.80
2018-03-25T16:41:24.546Z,20.90
2018-03-25T16:44:27.128Z,22.30
2018-03-25T16:47:29.812Z,20.40
2018-03-25T16:50:32.277Z,21.10
2018-03-25T16:53:34.873Z,21.57
2018-03-25T16:56:37.563Z,21.80
2018-03-25T16:59:40.093Z,21.33
2018-03-25T17:02:42.630Z,21.93
2018-03-25T17:05:45.245Z,22.40
2018-03-25T17:08:47.792Z,22.30
2018-03-25T17:11:50.327Z,21.37
2018-03-25T17:14:52.941Z,22.10
2018-03-25T17:17:55.436Z,21.57
2018-03-25T17:20:58.014Z,23.20
2018-03-25T17:24:00.571Z,22.97
2018-03-25T17:27:03.132Z,21.27
2018-03-25T17:30:05.673Z,22.40
2018-03-25T17:33:08.320Z,20.57
2018-03-25T17:36:10.876Z,21.90
2018-03-25T17:39:13.393Z,21.73
2018-03-25T17:42:16.003Z,22.07
2018-03-25T17:45:19.392Z,20.50
2018-03-25T17:48:21.881Z,21.53
2018-03-25T17:51:24.511Z,21.70
2018-03-25T17:54:27.071Z,22.70
2018-03-25T17:57:29.599Z,20.67
2018-03-25T18:00:32.076Z,20.90
2018-03-25T18:03:34.616Z,20.80
2018-03-25T18:06:37.156Z,21.43
2018-03-25T18:09:39.787Z,22.40
2018-03-25T18:12:42.362Z,20.70
2018-03-25T18:15:44.888Z,21.87
2018-03-25T18:18:47.489Z,21.37
2018-03-25T18:21:50.143Z,19.60
2018-03-25T18:24:52.701Z,20.40
2018-03-25T18:27:55.266Z,22.70
2018-03-25T18:30:57.930Z,21.07
2018-03-25T18:34:00.497Z,21.90
2018-03-25T18:37:03.050Z,21.73
2018-03-25T18:40:05.605Z,20.77
2018-03-25T18:43:08.277Z,21.50
2018-03-25T18:46:10.785Z,22.20
2018-03-25T18:49:13.349Z,21.57
2018-03-25T18:52:15.968Z,21.50
2018-03-25T18:55:18.452Z,21.40
2018-03-25T18:58:21.107Z,20.90
2018-03-25T19:01:23.662Z,20.57
2018-03-25T19:04:26.413Z,21.27
2018-03-25T19:07:29.088Z,22.17
2018-03-25T19:10:31.757Z,20.93
2018-03-25T19:13:34.337Z,20.50
2018-03-25T19:16:37.077Z,19.37
2018-03-25T19:19:39.654Z,19.70
2018-03-25T19:22:42.256Z,19.17
2018-03-25T19:25:44.938Z,18.20
2018-03-25T19:28:47.562Z,19.93
2018-03-25T19:31:50.208Z,18.77
2018-03-25T19:34:52.907Z,18.30
2018-03-25T19:37:55.543Z,17.70
2018-03-25T19:40:58.057Z,18.47
2018-03-25T19:44:00.678Z,18.27
2018-03-25T19:47:03.213Z,19.23
2018-03-25T19:50:05.806Z,17.80
2018-03-25T19:53:08.358Z,18.43
2018-03-25T19:56:10.929Z,18.60
2018-03-25T19:59:13.409Z,18.57
2018-03-25T20:02:15.934Z,17.40
2018-03-25T20:05:18.500Z,17.53
2018-03-25T20:08:21.059Z,17.50
2018-03-25T20:11:23.625Z,18.03
2018-03-25T20:14:26.266Z,18.43
2018-03-25T20:17:28.660Z,18.30
2018-03-25T20:20:31.197Z,19.87
2018-03-25T20:23:33.768Z,19.47
2018-03-25T20:26:36.444Z,18.97
2018-03-25T20:29:38.893Z,18.40
2018-03-25T20:32:41.463Z,19.37
2018-03-25T20:35:43.975Z,18.60
2018-03-25T20:38:46.488Z,19.47
2018-03-25T20:41:49.064Z,19.63
2018-03-25T20:44:51.612Z,18.37
2018-03-25T20:47:54.178Z,20.00
2018-03-25T20:50:56.660Z,19.97
2018-03-25T20:53:59.214Z,19.93
2018-03-25T20:57:01.681Z,20.07
2018-03-25T21:00:04.228Z,19.90
2018-03-25T21:03:06.802Z,20.30
2018-03-25T21:06:09.277Z,20.37
2018-03-25T21:09:11.863Z,20.70
2018-03-25T21:12:14.372Z,19.70
2018-03-25T21:15:16.898Z,21.57
2018-03-25T21:18:19.368Z,19.90
2018-03-25T21:21:21.913Z,19.07
2018-03-25T21:24:24.519Z,18.77
2018-03-25T21:27:27.135Z,19.87
2018-03-25T21:30:29.749Z,21.47
2018-03-25T21:33:32.322Z,21.00
2018-03-25T21:36:34.950Z,21.07
2018-03-25T21:39:37.436Z,21.33
2018-03-25T21:42:39.954Z,21.90
2018-03-25T21:45:42.469Z,20.23
2018-03-25T21:48:44.959Z,20.83
2018-03-25T21:51:47.506Z,19.33
2018-03-25T21:54:50.061Z,20.70
2018-03-25T21:57:52.604Z,21.33
2018-03-25T22:00:55.134Z,20.33
2018-03-25T22:03:57.617Z,21.67
2018-03-25T22:07:00.130Z,19.53
2018-03-25T22:10:02.593Z,20.13
2018-03-25T22:13:05.135Z,20.53
2018-03-25T22:16:07.778Z,21.67
2018-03-25T22:19:10.350Z,20.83
2018-03-25T22:22:12.820Z,21.47
2018-03-25T22:25:15.339Z,21.17
2018-03-25T22:28:17.924Z,21.60
2018-03-25T22:31:20.455Z,20.30
2018-03-25T22:34:22.937Z,21.50
2018-03-25T22:37:25.416Z,19.93
2018-03-25T22:40:27.929Z,20.30
2018-03-25T22:43:30.451Z,20.20
2018-03-25T22:46:32.940Z,21.23
2018-03-25T22:49:35.460Z,20.43
2018-03-25T22:52:38.020Z,21.47
2018-03-25T22:55:40.535Z,21.17
2018-03-25T22:58:43.018Z,20.60
2018-03-25T23:01:45.528Z,21.77
2018-03-25T23:04:47.980Z,21.37
2018-03-25T23:07:50.583Z,21.87
2018-03-25T23:10:53.031Z,21.27
2018-03-25T23:13:55.561Z,21.30
2018-03-25T23:16:58.030Z,21.07
2018-03-25T23:20:00.526Z,21.77
2018-03-25T23:23:03.078Z,22.73
2018-03-25T23:26:05.549Z,23.20
2018-03-25T23:29:08.018Z,23.00
2018-03-25T23:32:10.601Z,25.10
2018-03-25T23:35:13.080Z,23.37
2018-03-25T23:38:15.580Z,24.57
2018-03-25T23:41:18.028Z,23.60
2018-03-25T23:44:20.518Z,24.50
2018-03-25T23:47:23.014Z,24.80
2018-03-25T23:50:25.584Z,25.17
2018-03-25T23:53:28.045Z,25.60
2018-03-25T23:56:30.574Z,24.93
2018-03-25T23:59:33.076Z,26.80
